Pagrindinis puslapis
METAR-TAF:

METAR-TAF

Oro uostai :

Turaif, Saudo Arabija

platuma: 31-41N, ilguma: 038-44E, Aukštis: 813 m

Dabartinis oras

Ataskaita buvo paskelbta 34 minutes, ne 10:00 UTC
Vėjas 12 kt iš Rytų/Pietryčių
Temperatūra 34°C
Drėgmė 25%
Slėgis 1020 hPa
Matomumas 10 km arba daugiau
Išsisklaidę debesys ne aukštis 4000 ft
Su prošvaistėmis ne aukštis 10000 ft

METAR: OETR 141000Z 12012KT 9999 SCT040 BKN100 34/11 Q1020

Laikas: 13:34 (10:34 UTC)

Prognozė

Ataskaita buvo paskelbta 11 valandos ir 34 minutes, ne 23:00 UTC
Prognozė galioja nuo 14 metu 00 UTC su 15 metu 06 UTC
Vėjas 8 kt iš Rytų su gūsio iki 18 kt
Matomumas: 8000 m
Mažai debesys ne aukštis 4000 ft
Laikinai
nuo 14 metu 08 UTC su 14 metu 20 UTC
Matomumas: 4000 m
Mažai debesys ne aukštis 3500 ft, Liūtiniai kamuoliniai debesys.
Su prošvaistėmis ne aukštis 4000 ft
Dulkes pustymas, perkūnija
Tapsmas
nuo 14 metu 21 UTC su 14 metu 23 UTC
Vėjas 6 kt iš Rytų

TAF: OETR 132300Z 1400/1506 08008G18KT 8000 FEW040 TEMPO 1408/1420 4000 BLDU TS FEW035CB BKN040 BECMG 1421/1423 08006KT

Orai ataskaitas ir orų prognozės (METAR, TAF).

turimą stotys yra geltonos ir raudonos taškus žemėlapyje.

Perkelti pele per norėdami pamatyti stoties vardą.

Tada spustelėkite, norėdami matyti oro stebėjimo ir prognozės.

Norėdami pakeisti žemėlapį: spustelėkite ant žalios mygtukų su juodo kryžiaus žemyn,; žalią mygtuką su brūkšneliu, jei norite nutolinti; arba žalių rodyklių gretimoms žemėlapius.


METAR-TAF: